Eunice, LA

6:22 AM CDT on September 02, 2015 (GMT -0500)
Cross D Ranch | | Change Station
CLOSE
Current Station
Personal Weather Station
Location: Eunice, LA
Elevation: 49 ft
Nearby Weather Stations

Elev 49 ft 30.44 °N, 92.33 °W | Updated 2 minutes ago

Partly Cloudy
Partly Cloudy
73.4 °F
Feels Like 73.4 °F
N
1.0
Wind Variable Wind from NNE
Gusts 1.0 mph

Today
High -- | Low -- °F
--% Chance of Precip.
Yesterday
High -- | Low -- °F
Precip. -- in
6:46 AM 7:31 PM
Waning Gibbous, 81% visible
Pressure 30.05 in
Visibility 7.0 miles
Clouds Scattered Clouds 11000 ft
Dew Point 72 °F
Humidity 97%
Rainfall 0.00 in
Snow Depth Not available.
UV 0 out of 12
Pollen 6.40 out of 12
Air Quality Not available.
Flu Activity Not available.
METAR KOPL 021115Z AUTO 00000KT 7SM SCT110 22/22 A3005 RMK AO2 T02220220
Pressure 30.05 in
Visibility 7.0 miles
Clouds Scattered Clouds 11000 ft
Dew Point 72 °F
Humidity 97%
Rainfall 0.00 in
Snow Depth Not available.
UV 0 out of 12
Pollen 6.40 out of 12
Air Quality Not available.
Flu Activity Not available.
METAR KOPL 021115Z AUTO 00000KT 7SM SCT110 22/22 A3005 RMK AO2 T02220220

10-Day Weather Forecast

×

Almanac

Astronomy

Sep. 02, 2015 Rise Set
Actual Time
Civil Twilight
Nautical Twilight
Astronomical Twilight
Moon
Length of Visible Light
Length of Day
Tomorrow will be .
, % of the Moon is Illuminated

Today's Extremes

State Highs State Lows

Community

WunderPhotos

Upload Photos

1,851,736 photos uploaded!

WunderBlogs® & News

Nearby

Air Quality

  Air Quality AQ Index Pollutant
Not available.

Snow Depth

Station Depth Elevation

Earthquake Activity

City Distance Mag. Time & Date
Minimum magnitude displayed is 2.5.

Coastal Water Temperatures

Place Temperature

Stations

Nearby Weather Stations

Station Location Temp. Windchill Dew Point Humidity Wind Precip. Elev Updated Type